createdAt,value
2019-05-16T00:02:14.747Z,57.18
2019-05-16T00:04:41.499Z,57.22
2019-05-16T00:07:08.258Z,57.16
2019-05-16T00:09:35.045Z,57.08
2019-05-16T00:12:01.730Z,57.09
2019-05-16T00:14:28.468Z,57.04
2019-05-16T00:16:55.281Z,57.05
2019-05-16T00:19:22.003Z,57.00
2019-05-16T00:21:48.878Z,56.94
2019-05-16T00:24:15.662Z,57.13
2019-05-16T00:26:42.376Z,57.18
2019-05-16T00:29:09.110Z,57.25
2019-05-16T00:31:38.070Z,57.51
2019-05-16T00:34:04.529Z,57.68
2019-05-16T00:36:31.257Z,57.78
2019-05-16T00:38:58.043Z,57.85
2019-05-16T00:41:24.800Z,57.86
2019-05-16T00:43:51.553Z,57.70
2019-05-16T00:46:20.059Z,57.74
2019-05-16T00:48:48.710Z,57.75
2019-05-16T00:51:18.135Z,57.58
2019-05-16T00:53:44.618Z,57.71
2019-05-16T00:56:11.367Z,57.87
2019-05-16T00:58:38.931Z,57.89
2019-05-16T01:01:08.303Z,58.05
2019-05-16T01:03:34.370Z,58.30
2019-05-16T01:06:01.094Z,58.38
2019-05-16T01:08:28.316Z,58.53
2019-05-16T01:10:55.323Z,58.34
2019-05-16T01:13:22.049Z,58.31
2019-05-16T01:15:48.892Z,58.52
2019-05-16T01:18:15.588Z,58.70
2019-05-16T01:20:42.322Z,58.58
2019-05-16T01:23:09.206Z,58.49
2019-05-16T01:25:36.000Z,58.54
2019-05-16T01:28:03.153Z,58.77
2019-05-16T01:30:29.921Z,58.89
2019-05-16T01:32:58.243Z,58.82
2019-05-16T01:35:25.184Z,58.86
2019-05-16T01:37:51.969Z,58.68
2019-05-16T01:40:19.065Z,58.63
2019-05-16T01:42:45.933Z,58.54
2019-05-16T01:45:13.237Z,58.44
2019-05-16T01:47:39.969Z,58.48
2019-05-16T01:50:08.692Z,58.79
2019-05-16T01:52:38.056Z,58.89
2019-05-16T01:55:04.724Z,58.84
2019-05-16T01:57:31.474Z,58.66
2019-05-16T01:59:58.915Z,58.82
2019-05-16T02:02:25.932Z,58.75
2019-05-16T02:04:52.658Z,58.53
2019-05-16T02:07:19.520Z,58.57
2019-05-16T02:09:47.687Z,58.94
2019-05-16T02:12:14.595Z,59.22
2019-05-16T02:14:41.437Z,59.27
2019-05-16T02:17:10.891Z,59.33
2019-05-16T02:19:38.462Z,59.19
2019-05-16T02:22:05.362Z,59.11
2019-05-16T02:24:32.199Z,59.25
2019-05-16T02:26:59.143Z,59.06
2019-05-16T02:29:26.049Z,58.73
2019-05-16T02:31:52.767Z,58.73
2019-05-16T02:34:21.728Z,58.84
2019-05-16T02:37:09.542Z,58.86
2019-05-16T02:39:16.640Z,58.72
2019-05-16T02:41:46.284Z,58.77
2019-05-16T02:44:12.312Z,58.93
2019-05-16T02:46:41.817Z,58.98
2019-05-16T02:49:11.337Z,59.09
2019-05-16T02:51:36.349Z,59.12
2019-05-16T02:54:03.188Z,59.15
2019-05-16T02:56:31.690Z,59.22
2019-05-16T02:59:01.733Z,59.10
2019-05-16T03:01:31.601Z,59.00
2019-05-16T03:03:56.810Z,58.94
2019-05-16T03:06:25.521Z,59.02
2019-05-16T03:08:54.027Z,59.14
2019-05-16T03:11:21.407Z,59.44
2019-05-16T03:13:52.370Z,59.49
2019-05-16T03:16:22.243Z,59.54
2019-05-16T03:18:51.620Z,59.65
2019-05-16T03:21:22.335Z,59.67
2019-05-16T03:23:50.770Z,59.64
2019-05-16T03:26:20.823Z,59.59
2019-05-16T03:28:46.214Z,59.60
2019-05-16T03:31:15.264Z,59.64
2019-05-16T03:33:49.894Z,59.59
2019-05-16T03:36:14.726Z,59.59
2019-05-16T03:38:41.107Z,59.26
2019-05-16T03:41:07.157Z,59.19
2019-05-16T03:43:33.972Z,59.19
2019-05-16T03:46:02.557Z,59.34
2019-05-16T03:48:31.542Z,59.26
2019-05-16T03:51:00.652Z,59.28
2019-05-16T03:53:26.452Z,59.34
2019-05-16T03:55:53.198Z,59.46
2019-05-16T03:58:22.544Z,59.54
2019-05-16T04:00:53.202Z,59.32
2019-05-16T04:03:21.431Z,59.11
2019-05-16T04:05:52.106Z,58.99
2019-05-16T04:08:23.353Z,58.97
2019-05-16T04:10:45.956Z,58.81
2019-05-16T04:13:12.880Z,58.75
2019-05-16T04:15:40.752Z,58.98
2019-05-16T04:18:10.915Z,59.13
2019-05-16T04:20:40.426Z,59.11
2019-05-16T04:23:06.970Z,58.78
2019-05-16T04:25:33.777Z,59.09
2019-05-16T04:28:01.079Z,58.78
2019-05-16T04:30:31.003Z,58.75
2019-05-16T04:32:56.541Z,58.88
2019-05-16T04:35:23.343Z,59.08
2019-05-16T04:37:51.290Z,59.15
2019-05-16T04:40:18.259Z,59.23
2019-05-16T04:42:46.774Z,59.25
2019-05-16T04:45:13.692Z,59.33
2019-05-16T04:47:41.314Z,59.46
2019-05-16T04:50:11.615Z,59.49
2019-05-16T04:52:37.656Z,59.55
2019-05-16T04:55:07.640Z,59.69
2019-05-16T04:57:34.828Z,59.76
2019-05-16T05:00:02.573Z,59.92
2019-05-16T05:02:30.931Z,59.96
2019-05-16T05:05:00.975Z,60.00
2019-05-16T05:07:26.617Z,59.99
2019-05-16T05:09:53.341Z,59.94
2019-05-16T05:12:20.795Z,59.83
2019-05-16T05:14:50.809Z,59.64
2019-05-16T05:17:16.426Z,59.45
2019-05-16T05:19:43.179Z,59.17
2019-05-16T05:22:10.460Z,58.92
2019-05-16T05:24:37.274Z,58.60
2019-05-16T05:27:04.034Z,58.47
2019-05-16T05:29:30.853Z,58.51
2019-05-16T05:32:03.508Z,58.31
2019-05-16T05:34:26.134Z,57.96
2019-05-16T05:36:54.213Z,57.88
2019-05-16T05:39:23.467Z,57.61
2019-05-16T05:41:50.511Z,57.32
2019-05-16T05:44:17.465Z,57.23
2019-05-16T05:46:44.215Z,57.98
2019-05-16T05:49:11.082Z,58.67
2019-05-16T05:51:37.834Z,59.61
2019-05-16T05:54:04.561Z,59.42
2019-05-16T05:56:31.315Z,59.69
2019-05-16T05:58:59.016Z,59.11
2019-05-16T06:01:26.588Z,58.80
2019-05-16T06:03:56.712Z,58.58
2019-05-16T06:06:23.469Z,57.74
2019-05-16T06:08:50.423Z,57.66
2019-05-16T06:11:17.162Z,57.51
2019-05-16T06:13:43.941Z,57.48
2019-05-16T06:16:10.970Z,57.12
2019-05-16T06:18:39.700Z,57.15
2019-05-16T06:21:06.449Z,57.15
2019-05-16T06:23:33.216Z,57.34
2019-05-16T06:26:00.602Z,57.25
2019-05-16T06:28:27.447Z,57.16
2019-05-16T06:30:54.171Z,56.91
2019-05-16T06:33:20.997Z,56.56
2019-05-16T06:35:47.714Z,56.44
2019-05-16T06:38:14.463Z,56.47
2019-05-16T06:40:41.314Z,56.44
2019-05-16T06:43:08.058Z,55.57
2019-05-16T06:45:34.803Z,55.23
2019-05-16T06:48:01.568Z,55.08
2019-05-16T06:50:29.733Z,55.18
2019-05-16T06:52:56.761Z,55.38
2019-05-16T06:55:23.636Z,55.03
2019-05-16T06:57:50.512Z,54.92
2019-05-16T07:00:17.207Z,54.96
2019-05-16T07:02:44.060Z,54.83
2019-05-16T07:05:10.779Z,54.06
2019-05-16T07:07:37.578Z,54.02
2019-05-16T07:10:04.846Z,53.58
2019-05-16T07:12:34.083Z,53.13
2019-05-16T07:15:01.810Z,52.96
2019-05-16T07:17:30.577Z,52.75
2019-05-16T07:19:57.216Z,53.01
2019-05-16T07:22:23.937Z,52.72
2019-05-16T07:24:50.742Z,52.33
2019-05-16T07:27:17.464Z,50.38
2019-05-16T07:29:44.388Z,49.61
2019-05-16T07:32:12.626Z,49.57
2019-05-16T07:34:40.381Z,49.61
2019-05-16T07:37:07.244Z,49.35
2019-05-16T07:39:34.065Z,48.78
2019-05-16T07:42:00.818Z,49.07
2019-05-16T07:44:27.555Z,49.14
2019-05-16T07:46:54.367Z,49.36
2019-05-16T07:49:21.080Z,49.18
2019-05-16T07:51:49.792Z,48.98
2019-05-16T07:54:16.409Z,48.73
2019-05-16T07:56:43.131Z,48.36
2019-05-16T07:59:10.453Z,46.85
2019-05-16T08:01:39.732Z,47.33
2019-05-16T08:04:05.923Z,48.17
2019-05-16T08:06:34.025Z,47.69
2019-05-16T08:09:01.074Z,48.50
2019-05-16T08:11:30.418Z,48.18
2019-05-16T08:13:56.360Z,49.19
2019-05-16T08:16:23.166Z,49.12
2019-05-16T08:18:50.662Z,49.50
2019-05-16T08:21:20.124Z,49.40
2019-05-16T08:23:46.216Z,49.94
2019-05-16T08:26:12.974Z,48.87
2019-05-16T08:28:41.202Z,49.90
2019-05-16T08:31:11.180Z,49.73
2019-05-16T08:33:36.896Z,48.75
2019-05-16T08:36:08.138Z,49.10
2019-05-16T08:38:33.112Z,49.46
2019-05-16T08:43:31.295Z,48.94
2019-05-16T08:45:56.963Z,48.87
2019-05-16T08:48:23.725Z,48.61
2019-05-16T08:53:21.637Z,46.38
2019-05-16T08:55:50.338Z,46.90
2019-05-16T08:58:16.250Z,46.96
2019-05-16T09:00:43.050Z,46.33
2019-05-16T09:03:12.310Z,45.51
2019-05-16T09:05:42.627Z,45.58
2019-05-16T09:08:07.031Z,45.21
2019-05-16T09:10:30.561Z,48.00
2019-05-16T09:10:37.993Z,49.09
2019-05-16T09:10:49.782Z,45.19
2019-05-16T09:13:02.220Z,45.29
2019-05-16T09:15:28.953Z,44.39
2019-05-16T09:17:58.143Z,44.52
2019-05-16T09:20:24.273Z,44.51
2019-05-16T09:22:51.158Z,45.00
2019-05-16T09:25:18.713Z,44.00
2019-05-16T09:27:47.043Z,43.90
2019-05-16T09:30:17.093Z,43.95
2019-05-16T09:32:43.322Z,43.85
2019-05-16T09:35:10.468Z,43.79
2019-05-16T09:37:37.679Z,44.22
2019-05-16T09:40:07.079Z,43.73
2019-05-16T09:42:33.876Z,43.49
2019-05-16T09:45:00.740Z,44.25
2019-05-16T09:47:28.407Z,43.67
2019-05-16T09:49:57.782Z,43.09
2019-05-16T09:52:23.985Z,42.84
2019-05-16T09:54:50.708Z,42.69
2019-05-16T09:57:18.938Z,42.14
2019-05-16T09:59:46.518Z,42.38
2019-05-16T10:02:13.353Z,41.23
2019-05-16T10:04:40.177Z,41.47
2019-05-16T10:07:06.954Z,41.70
2019-05-16T10:09:44.081Z,41.56
2019-05-16T10:12:14.213Z,41.59
2019-05-16T10:14:30.611Z,41.96
2019-05-16T10:16:57.864Z,42.79
2019-05-16T10:19:27.368Z,42.98
2019-05-16T10:21:53.367Z,43.19
2019-05-16T10:24:20.287Z,42.47
2019-05-16T10:26:53.450Z,41.34
2019-05-16T10:29:18.456Z,41.41
2019-05-16T10:31:49.282Z,42.21
2019-05-16T10:34:12.471Z,42.52
2019-05-16T10:36:39.241Z,41.95
2019-05-16T10:39:07.618Z,42.56
2019-05-16T10:41:36.946Z,42.38
2019-05-16T10:44:03.185Z,42.75
2019-05-16T10:46:29.913Z,42.61
2019-05-16T10:48:57.774Z,41.93
2019-05-16T10:51:26.740Z,41.60
2019-05-16T10:54:05.778Z,41.54
2019-05-16T10:56:21.857Z,41.16
2019-05-16T10:59:24.888Z,41.91
2019-05-16T11:01:26.954Z,41.95
2019-05-16T11:03:48.797Z,41.36
2019-05-16T11:06:25.346Z,41.92
2019-05-16T11:08:42.946Z,41.64
2019-05-16T11:11:09.652Z,40.91
2019-05-16T11:13:37.027Z,40.65
2019-05-16T11:16:03.914Z,40.36
2019-05-16T11:18:30.627Z,40.55
2019-05-16T11:20:58.309Z,40.33
2019-05-16T11:23:30.886Z,40.54
2019-05-16T11:25:55.484Z,40.96
2019-05-16T11:28:22.386Z,41.37
2019-05-16T11:30:49.945Z,41.76
2019-05-16T11:33:17.572Z,41.70
2019-05-16T11:35:47.308Z,41.96
2019-05-16T11:38:12.974Z,42.00
2019-05-16T11:40:39.836Z,42.19
2019-05-16T11:43:15.953Z,42.02
2019-05-16T11:45:36.795Z,42.05
2019-05-16T11:48:03.907Z,42.33
2019-05-16T11:50:30.688Z,42.23
2019-05-16T11:52:57.452Z,42.30
2019-05-16T11:55:32.224Z,42.40
2019-05-16T11:57:52.786Z,42.28
2019-05-16T12:00:20.348Z,42.65
2019-05-16T12:02:47.997Z,42.37
2019-05-16T12:05:17.180Z,41.91
2019-05-16T12:07:44.559Z,42.09
2019-05-16T12:10:13.204Z,42.14
2019-05-16T12:12:40.063Z,42.16
2019-05-16T12:15:08.108Z,42.27
2019-05-16T12:17:35.057Z,42.08
2019-05-16T12:20:02.102Z,41.32
2019-05-16T12:22:28.841Z,41.31
2019-05-16T12:24:57.440Z,41.82
2019-05-16T12:27:31.846Z,41.75
2019-05-16T12:29:55.478Z,41.48
2019-05-16T12:32:21.320Z,41.56
2019-05-16T12:34:48.162Z,41.91
2019-05-16T12:37:14.921Z,42.20
2019-05-16T12:39:41.658Z,41.72
2019-05-16T12:42:08.710Z,41.87
2019-05-16T12:44:37.349Z,41.83
2019-05-16T12:47:04.136Z,41.80
2019-05-16T12:49:30.921Z,41.93
2019-05-16T12:51:57.676Z,42.10
2019-05-16T12:54:24.438Z,42.66
2019-05-16T12:56:51.226Z,42.67
2019-05-16T12:59:21.215Z,42.87
2019-05-16T13:01:48.128Z,42.89
2019-05-16T13:04:18.531Z,42.81
2019-05-16T13:06:43.580Z,43.32
2019-05-16T13:09:10.361Z,43.10
2019-05-16T13:11:37.864Z,43.12
2019-05-16T13:14:09.900Z,43.47
2019-05-16T13:16:33.293Z,43.20
2019-05-16T13:19:00.051Z,43.40
2019-05-16T13:21:27.577Z,43.24
2019-05-16T13:23:54.425Z,43.38
2019-05-16T13:26:22.501Z,43.85
2019-05-16T13:28:49.265Z,43.82
2019-05-16T13:31:17.133Z,44.46
2019-05-16T13:33:44.676Z,44.65
2019-05-16T13:36:11.512Z,44.77
2019-05-16T13:38:38.253Z,44.69
2019-05-16T13:41:07.441Z,44.54
2019-05-16T13:43:33.758Z,44.39
2019-05-16T13:46:00.558Z,44.59
2019-05-16T13:48:27.370Z,45.14
2019-05-16T13:51:08.393Z,45.45
2019-05-16T13:53:22.691Z,44.79
2019-05-16T13:55:49.565Z,44.66
2019-05-16T13:58:17.913Z,44.89
2019-05-16T14:00:44.791Z,44.85
2019-05-16T14:03:11.572Z,45.26
2019-05-16T14:05:38.339Z,45.43
2019-05-16T14:08:06.789Z,45.37
2019-05-16T14:10:33.882Z,45.32
2019-05-16T14:13:00.608Z,45.61
2019-05-16T14:15:27.352Z,45.44
2019-05-16T14:17:56.794Z,45.30
2019-05-16T14:20:23.935Z,45.31
2019-05-16T14:22:50.670Z,45.41
2019-05-16T14:25:17.498Z,45.49
2019-05-16T14:27:44.214Z,45.91
2019-05-16T14:30:13.039Z,45.52
2019-05-16T14:32:42.946Z,44.94
2019-05-16T14:35:09.234Z,44.94
2019-05-16T14:37:37.842Z,44.94
2019-05-16T14:40:06.283Z,45.00
2019-05-16T14:42:33.046Z,44.83
2019-05-16T14:45:10.897Z,44.89
2019-05-16T14:47:29.369Z,46.09
2019-05-16T14:49:56.090Z,46.71
2019-05-16T14:52:22.845Z,47.40
2019-05-16T14:54:49.641Z,47.74
2019-05-16T14:57:16.777Z,47.37
2019-05-16T14:59:43.617Z,46.80
2019-05-16T15:02:10.506Z,46.91
2019-05-16T15:04:37.740Z,46.90
2019-05-16T15:07:06.821Z,46.86
2019-05-16T15:09:33.379Z,46.80
2019-05-16T15:12:00.159Z,46.68
2019-05-16T15:14:28.092Z,46.64
2019-05-16T15:16:57.421Z,46.79
2019-05-16T15:19:24.885Z,46.91
2019-05-16T15:21:51.636Z,47.24
2019-05-16T15:24:18.502Z,47.09
2019-05-16T15:26:47.238Z,46.91
2019-05-16T15:29:16.359Z,46.86
2019-05-16T15:31:42.649Z,47.33
2019-05-16T15:34:09.425Z,47.19
2019-05-16T15:36:37.242Z,47.09
2019-05-16T15:39:08.100Z,47.00
2019-05-16T15:41:36.672Z,47.11
2019-05-16T15:44:03.865Z,47.18
2019-05-16T15:46:30.750Z,47.46
2019-05-16T15:49:00.417Z,47.13
2019-05-16T15:51:27.387Z,47.68
2019-05-16T15:53:57.096Z,47.98
2019-05-16T15:56:26.942Z,48.34
2019-05-16T15:58:52.977Z,48.46
2019-05-16T16:01:19.842Z,48.76
2019-05-16T16:03:47.281Z,48.91
2019-05-16T16:06:14.259Z,49.29
2019-05-16T16:08:41.050Z,49.07
2019-05-16T16:11:07.803Z,49.47
2019-05-16T16:13:37.152Z,49.33
2019-05-16T16:16:03.533Z,49.34
2019-05-16T16:18:30.282Z,49.82
2019-05-16T16:20:57.278Z,49.95
2019-05-16T16:23:27.009Z,50.24
2019-05-16T16:25:52.721Z,50.16
2019-05-16T16:28:19.632Z,50.17
2019-05-16T16:30:47.954Z,50.26
2019-05-16T16:33:24.994Z,50.14
2019-05-16T16:35:48.082Z,50.66
2019-05-16T16:38:16.926Z,50.95
2019-05-16T16:40:43.511Z,50.64
2019-05-16T16:43:11.668Z,51.02
2019-05-16T16:45:38.470Z,51.06
2019-05-16T16:48:07.638Z,51.35
2019-05-16T16:50:33.935Z,51.16
2019-05-16T16:53:00.816Z,51.36
2019-05-16T16:55:27.768Z,51.75
2019-05-16T16:57:56.666Z,51.77
2019-05-16T17:00:23.279Z,51.97
2019-05-16T17:03:03.102Z,52.02
2019-05-16T17:05:20.911Z,51.95
2019-05-16T17:07:48.673Z,52.40
2019-05-16T17:10:16.559Z,52.56
2019-05-16T17:12:43.651Z,52.96
2019-05-16T17:15:11.172Z,53.03
2019-05-16T17:17:37.949Z,53.01
2019-05-16T17:20:07.625Z,53.10
2019-05-16T17:22:37.133Z,53.37
2019-05-16T17:25:07.310Z,53.59
2019-05-16T17:27:34.068Z,53.49
2019-05-16T17:30:02.451Z,53.58
2019-05-16T17:32:29.472Z,53.51
2019-05-16T17:34:56.177Z,53.85
2019-05-16T17:37:23.076Z,54.06
2019-05-16T17:39:49.947Z,54.82
2019-05-16T17:42:16.767Z,55.15
2019-05-16T17:44:47.074Z,55.58
2019-05-16T17:47:12.176Z,55.80
2019-05-16T17:49:41.379Z,56.16
2019-05-16T17:52:08.336Z,56.91
2019-05-16T17:54:37.134Z,57.01
2019-05-16T17:57:03.808Z,57.39
2019-05-16T17:59:30.684Z,57.43
2019-05-16T18:01:57.423Z,57.92
2019-05-16T18:04:26.530Z,57.91
2019-05-16T18:06:52.838Z,57.81
2019-05-16T18:09:19.598Z,58.15
2019-05-16T18:11:46.788Z,58.37
2019-05-16T18:14:17.174Z,58.54
2019-05-16T18:16:58.395Z,58.74
2019-05-16T18:19:23.784Z,58.81
2019-05-16T18:22:02.831Z,59.05
2019-05-16T18:24:33.786Z,59.04
2019-05-16T18:27:07.390Z,59.31
2019-05-16T18:29:39.933Z,59.50
2019-05-16T18:32:08.185Z,59.46
2019-05-16T18:34:37.453Z,59.27
2019-05-16T18:37:03.550Z,59.52
2019-05-16T18:39:30.268Z,59.05
2019-05-16T18:41:57.015Z,58.86
2019-05-16T18:44:24.668Z,59.06
2019-05-16T18:47:04.032Z,59.16
2019-05-16T18:49:19.965Z,59.40
2019-05-16T18:51:46.839Z,59.36
2019-05-16T18:54:13.607Z,59.17
2019-05-16T18:56:40.359Z,59.04
2019-05-16T18:59:07.273Z,58.75
2019-05-16T19:01:37.374Z,58.36
2019-05-16T19:04:03.559Z,58.34
2019-05-16T19:06:30.441Z,58.26
2019-05-16T19:08:58.477Z,58.21
2019-05-16T19:11:26.833Z,58.25
2019-05-16T19:13:53.711Z,57.81
2019-05-16T19:16:20.470Z,58.14
2019-05-16T19:18:47.232Z,58.26
2019-05-16T19:21:14.132Z,58.11
2019-05-16T19:23:40.875Z,57.62
2019-05-16T19:26:07.590Z,57.74
2019-05-16T19:28:34.404Z,57.82
2019-05-16T19:31:01.326Z,56.94
2019-05-16T19:33:28.088Z,56.89
2019-05-16T19:35:56.529Z,56.91
2019-05-16T19:38:23.455Z,56.71
2019-05-16T19:40:50.186Z,56.58
2019-05-16T19:43:17.498Z,56.55
2019-05-16T19:45:46.427Z,56.90
2019-05-16T19:48:13.063Z,57.08
2019-05-16T19:50:39.948Z,57.14
2019-05-16T19:53:07.573Z,57.11
2019-05-16T19:55:36.590Z,56.83
2019-05-16T19:58:03.302Z,56.88
2019-05-16T20:00:30.120Z,57.15
2019-05-16T20:02:57.078Z,57.28
2019-05-16T20:05:23.905Z,57.25
2019-05-16T20:07:50.677Z,57.39
2019-05-16T20:10:17.401Z,57.80
2019-05-16T20:12:46.165Z,57.70
2019-05-16T20:15:13.758Z,57.73
2019-05-16T20:17:52.110Z,57.95
2019-05-16T20:20:09.795Z,57.84
2019-05-16T20:22:36.958Z,57.78
2019-05-16T20:25:05.276Z,57.48
2019-05-16T20:27:32.105Z,57.53
2019-05-16T20:29:59.420Z,57.58
2019-05-16T20:32:27.639Z,57.50
2019-05-16T20:34:54.481Z,57.57
2019-05-16T20:37:21.211Z,57.70
2019-05-16T20:39:47.973Z,57.89
2019-05-16T20:42:16.935Z,58.02
2019-05-16T20:44:43.439Z,58.45
2019-05-16T20:47:10.167Z,58.51
2019-05-16T20:49:37.468Z,58.21
2019-05-16T20:52:06.910Z,58.16
2019-05-16T20:54:32.971Z,57.86
2019-05-16T20:56:59.851Z,58.09
2019-05-16T20:59:26.667Z,58.18
2019-05-16T21:01:53.432Z,58.20
2019-05-16T21:04:20.206Z,58.31
2019-05-16T21:06:59.936Z,58.39
2019-05-16T21:09:16.948Z,58.30
2019-05-16T21:11:43.955Z,58.29
2019-05-16T21:14:10.714Z,58.37
2019-05-16T21:16:38.029Z,58.66
2019-05-16T21:19:06.936Z,58.75
2019-05-16T21:21:33.577Z,58.62
2019-05-16T21:24:00.340Z,58.60
2019-05-16T21:26:27.145Z,58.65
2019-05-16T21:28:53.853Z,58.84
2019-05-16T21:31:20.581Z,58.79
2019-05-16T21:33:48.473Z,58.67
2019-05-16T21:36:16.065Z,58.61
2019-05-16T21:38:43.771Z,58.48
2019-05-16T21:41:10.552Z,58.54
2019-05-16T21:43:37.762Z,58.47
2019-05-16T21:46:04.657Z,58.39
2019-05-16T21:48:31.440Z,58.52
2019-05-16T21:50:58.198Z,58.54
2019-05-16T21:53:29.654Z,58.62
2019-05-16T21:55:53.532Z,58.67
2019-05-16T21:58:20.257Z,58.73
2019-05-16T22:00:56.691Z,58.73
2019-05-16T22:03:23.261Z,58.75
2019-05-16T22:05:49.962Z,58.67
2019-05-16T22:08:16.924Z,58.63
2019-05-16T22:10:43.867Z,58.63
2019-05-16T22:13:10.610Z,58.66
2019-05-16T22:15:37.532Z,58.81
2019-05-16T22:18:06.999Z,58.74
2019-05-16T22:20:33.054Z,58.91
2019-05-16T22:22:59.801Z,58.81
2019-05-16T22:25:27.285Z,58.83
2019-05-16T22:27:54.116Z,59.04
2019-05-16T22:30:21.242Z,59.05
2019-05-16T22:32:48.138Z,58.79
2019-05-16T22:35:17.282Z,58.71
2019-05-16T22:37:54.911Z,58.65
2019-05-16T22:40:17.216Z,58.53
2019-05-16T22:42:43.833Z,58.66
2019-05-16T22:45:10.885Z,58.64
2019-05-16T22:47:37.704Z,58.69
2019-05-16T22:50:08.271Z,58.65
2019-05-16T22:52:36.799Z,58.71
2019-05-16T22:55:07.249Z,58.90
2019-05-16T22:57:33.538Z,59.04
2019-05-16T23:00:00.265Z,58.93
2019-05-16T23:02:27.511Z,58.90
2019-05-16T23:04:56.523Z,59.14
2019-05-16T23:07:22.911Z,59.27
2019-05-16T23:09:49.694Z,59.19
2019-05-16T23:12:17.427Z,59.16
2019-05-16T23:14:46.199Z,59.19
2019-05-16T23:17:13.054Z,59.16
2019-05-16T23:19:39.836Z,59.30
2019-05-16T23:22:07.536Z,59.30
2019-05-16T23:24:36.826Z,59.15
2019-05-16T23:27:03.314Z,59.10
2019-05-16T23:29:30.064Z,59.31
2019-05-16T23:31:56.849Z,59.20
2019-05-16T23:34:23.566Z,59.06
2019-05-16T23:36:50.302Z,59.21
2019-05-16T23:39:17.054Z,59.67
2019-05-16T23:41:43.784Z,59.75
2019-05-16T23:44:10.514Z,60.08
2019-05-16T23:46:37.305Z,60.16
2019-05-16T23:49:04.060Z,60.33
2019-05-16T23:51:30.813Z,60.58
2019-05-16T23:53:57.584Z,60.61
2019-05-16T23:56:24.330Z,60.66
2019-05-16T23:58:51.100Z,60.67
